createdAt,value
2019-03-24T00:00:41.351Z,9.30
2019-03-24T00:03:14.911Z,9.30
2019-03-24T00:05:48.386Z,9.40
2019-03-24T00:08:21.988Z,9.40
2019-03-24T00:10:55.626Z,9.30
2019-03-24T00:13:30.069Z,9.30
2019-03-24T00:16:03.850Z,9.30
2019-03-24T00:18:37.400Z,9.30
2019-03-24T00:21:11.015Z,9.30
2019-03-24T00:23:44.444Z,9.30
2019-03-24T00:26:18.859Z,9.20
2019-03-24T00:28:52.621Z,9.20
2019-03-24T00:31:26.422Z,9.20
2019-03-24T00:33:59.854Z,9.30
2019-03-24T00:36:33.359Z,9.20
2019-03-24T00:39:07.225Z,9.20
2019-03-24T00:41:40.816Z,9.10
2019-03-24T00:44:14.851Z,9.10
2019-03-24T00:46:49.337Z,9.10
2019-03-24T00:49:22.937Z,9.00
2019-03-24T00:51:56.292Z,9.00
2019-03-24T00:54:29.784Z,8.90
2019-03-24T00:57:03.362Z,8.90
2019-03-24T00:59:37.047Z,8.80
2019-03-24T01:02:10.614Z,8.80
2019-03-24T01:04:44.175Z,8.80
2019-03-24T01:07:17.883Z,8.90
2019-03-24T01:09:51.341Z,9.00
2019-03-24T01:12:24.882Z,9.00
2019-03-24T01:14:58.391Z,9.10
2019-03-24T01:17:32.291Z,9.20
2019-03-24T01:20:06.272Z,9.30
2019-03-24T01:22:39.754Z,9.40
2019-03-24T01:25:13.617Z,9.40
2019-03-24T01:27:47.149Z,9.50
2019-03-24T01:30:20.847Z,9.50
2019-03-24T01:32:54.190Z,9.50
2019-03-24T01:35:28.010Z,9.50
2019-03-24T01:38:01.491Z,9.50
2019-03-24T01:40:35.025Z,9.50
2019-03-24T01:43:09.530Z,9.50
2019-03-24T01:45:43.033Z,9.50
2019-03-24T01:48:16.472Z,9.50
2019-03-24T01:50:49.976Z,9.50
2019-03-24T01:53:23.654Z,9.50
2019-03-24T01:55:57.270Z,9.50
2019-03-24T01:58:30.935Z,9.40
2019-03-24T02:01:04.515Z,9.40
2019-03-24T02:03:38.221Z,9.40
2019-03-24T02:06:11.612Z,9.40
2019-03-24T02:08:44.976Z,9.40
2019-03-24T02:11:18.585Z,9.40
2019-03-24T02:13:51.973Z,9.30
2019-03-24T02:16:25.608Z,9.40
2019-03-24T02:18:59.293Z,9.40
2019-03-24T02:21:33.846Z,9.30
2019-03-24T02:24:07.387Z,9.40
2019-03-24T02:26:41.132Z,9.20
2019-03-24T02:29:14.783Z,9.20
2019-03-24T02:31:48.629Z,9.20
2019-03-24T02:34:22.519Z,9.20
2019-03-24T02:36:55.990Z,9.20
2019-03-24T02:39:29.378Z,9.10
2019-03-24T02:42:02.891Z,9.00
2019-03-24T02:44:36.504Z,9.00
2019-03-24T02:47:10.005Z,9.00
2019-03-24T02:49:43.527Z,8.90
2019-03-24T02:52:17.133Z,9.00
2019-03-24T02:54:50.700Z,9.00
2019-03-24T02:57:25.343Z,9.00
2019-03-24T02:59:58.825Z,9.00
2019-03-24T03:02:32.847Z,9.00
2019-03-24T03:05:07.240Z,9.10
2019-03-24T03:07:40.758Z,9.20
2019-03-24T03:10:14.797Z,9.10
2019-03-24T03:12:48.416Z,9.10
2019-03-24T03:15:22.017Z,9.10
2019-03-24T03:17:55.524Z,9.10
2019-03-24T03:20:29.032Z,9.10
2019-03-24T03:23:02.815Z,9.10
2019-03-24T03:25:36.454Z,9.10
2019-03-24T03:28:09.983Z,9.10
2019-03-24T03:30:43.690Z,9.10
2019-03-24T03:33:17.320Z,9.10
2019-03-24T03:35:50.873Z,9.10
2019-03-24T03:38:24.574Z,9.10
2019-03-24T03:40:58.103Z,9.10
2019-03-24T03:43:31.635Z,9.00
2019-03-24T03:46:05.261Z,9.00
2019-03-24T03:48:38.974Z,9.00
2019-03-24T03:51:12.588Z,9.00
2019-03-24T03:53:46.140Z,9.00
2019-03-24T03:56:19.730Z,9.00
2019-03-24T03:58:53.379Z,9.00
2019-03-24T04:01:27.090Z,9.00
2019-03-24T04:04:00.517Z,9.00
2019-03-24T04:06:33.928Z,9.00
2019-03-24T04:09:07.778Z,9.00
2019-03-24T04:11:41.146Z,8.90
2019-03-24T04:14:14.936Z,8.90
2019-03-24T04:16:48.519Z,8.90
2019-03-24T04:19:22.121Z,8.90
2019-03-24T04:21:55.949Z,8.90
2019-03-24T04:24:29.359Z,8.90
2019-03-24T04:27:02.941Z,9.00
2019-03-24T04:29:36.606Z,9.00
2019-03-24T04:32:21.673Z,9.00
2019-03-24T04:34:55.494Z,9.00
2019-03-24T04:37:28.963Z,9.00
2019-03-24T04:40:02.720Z,9.00
2019-03-24T04:42:36.408Z,8.90
2019-03-24T04:45:10.003Z,8.90
2019-03-24T04:47:43.545Z,9.00
2019-03-24T04:50:17.066Z,9.00
2019-03-24T04:52:50.740Z,9.10
2019-03-24T04:55:24.233Z,9.00
2019-03-24T04:57:58.737Z,9.10
2019-03-24T05:00:37.296Z,9.10
2019-03-24T05:03:10.960Z,9.10
2019-03-24T05:05:44.869Z,9.00
2019-03-24T05:08:18.894Z,9.00
2019-03-24T05:10:52.493Z,9.00
2019-03-24T05:13:26.023Z,9.00
2019-03-24T05:15:59.660Z,8.90
2019-03-24T05:18:33.338Z,8.90
2019-03-24T05:21:06.942Z,8.80
2019-03-24T05:23:40.336Z,8.80
2019-03-24T05:26:14.710Z,8.70
2019-03-24T05:28:48.095Z,8.70
2019-03-24T05:31:21.746Z,8.70
2019-03-24T05:33:55.395Z,8.60
2019-03-24T05:36:28.966Z,8.50
2019-03-24T05:39:03.479Z,8.50
2019-03-24T05:41:37.040Z,8.50
2019-03-24T05:44:10.415Z,8.50
2019-03-24T05:46:43.920Z,8.50
2019-03-24T05:49:17.374Z,8.50
2019-03-24T05:51:51.227Z,8.50
2019-03-24T05:54:24.622Z,8.50
2019-03-24T05:56:58.278Z,8.50
2019-03-24T05:59:32.000Z,8.50
2019-03-24T06:02:05.599Z,8.40
2019-03-24T06:04:39.171Z,8.40
2019-03-24T06:07:12.755Z,8.40
2019-03-24T06:09:46.281Z,8.40
2019-03-24T06:12:19.652Z,8.30
2019-03-24T06:14:53.176Z,8.30
2019-03-24T06:17:26.646Z,8.30
2019-03-24T06:20:00.325Z,8.40
2019-03-24T06:22:34.756Z,8.40
2019-03-24T06:25:08.777Z,8.40
2019-03-24T06:27:42.247Z,8.40
2019-03-24T06:30:15.799Z,8.40
2019-03-24T06:32:49.319Z,8.50
2019-03-24T06:35:23.021Z,8.50
2019-03-24T06:37:56.691Z,8.40
2019-03-24T06:40:30.381Z,8.50
2019-03-24T06:43:03.829Z,8.50
2019-03-24T06:45:37.426Z,8.50
2019-03-24T06:48:10.986Z,8.40
2019-03-24T06:50:44.548Z,8.40
2019-03-24T06:53:18.177Z,8.40
2019-03-24T06:55:51.766Z,8.40
2019-03-24T06:58:25.382Z,8.50
2019-03-24T07:00:59.431Z,8.50
2019-03-24T07:03:33.462Z,8.50
2019-03-24T07:06:07.161Z,8.50
2019-03-24T07:08:40.697Z,8.50
2019-03-24T07:11:14.435Z,8.60
2019-03-24T07:13:48.036Z,8.60
2019-03-24T07:16:21.717Z,8.60
2019-03-24T07:18:55.141Z,8.60
2019-03-24T07:21:28.611Z,8.60
2019-03-24T07:24:02.028Z,8.60
2019-03-24T07:26:35.621Z,8.60
2019-03-24T07:29:09.216Z,8.70
2019-03-24T07:31:42.740Z,8.80
2019-03-24T07:34:16.368Z,8.80
2019-03-24T07:36:49.847Z,8.70
2019-03-24T07:39:23.737Z,8.80
2019-03-24T07:41:57.248Z,8.80
2019-03-24T07:44:30.808Z,8.80
2019-03-24T07:47:11.328Z,8.80
2019-03-24T07:49:44.857Z,8.90
2019-03-24T07:52:18.274Z,8.90
2019-03-24T07:54:52.917Z,9.00
2019-03-24T07:57:26.734Z,9.10
2019-03-24T08:00:00.307Z,9.30
2019-03-24T08:02:33.938Z,9.30
2019-03-24T08:05:07.483Z,9.30
2019-03-24T08:07:41.201Z,9.30
2019-03-24T08:10:14.727Z,9.40
2019-03-24T08:12:48.328Z,9.40
2019-03-24T08:15:21.923Z,9.40
2019-03-24T08:17:55.526Z,9.40
2019-03-24T08:20:29.163Z,9.40
2019-03-24T08:23:02.663Z,9.20
2019-03-24T08:25:36.167Z,9.00
2019-03-24T08:28:17.558Z,9.00
2019-03-24T08:30:51.302Z,9.10
2019-03-24T08:33:24.993Z,9.20
2019-03-24T08:35:58.530Z,9.30
2019-03-24T08:38:32.223Z,9.50
2019-03-24T08:41:05.869Z,9.50
2019-03-24T08:43:39.414Z,9.50
2019-03-24T08:46:12.835Z,9.50
2019-03-24T08:48:46.272Z,9.50
2019-03-24T08:51:19.737Z,9.50
2019-03-24T08:53:53.375Z,9.50
2019-03-24T08:56:26.888Z,9.50
2019-03-24T08:59:00.670Z,9.50
2019-03-24T09:01:35.057Z,9.60
2019-03-24T09:04:08.447Z,9.50
2019-03-24T09:06:41.944Z,9.50
2019-03-24T09:09:15.469Z,9.40
2019-03-24T09:11:49.192Z,9.30
2019-03-24T09:14:22.698Z,9.50
2019-03-24T09:16:56.564Z,9.50
2019-03-24T09:19:30.238Z,9.40
2019-03-24T09:22:03.803Z,9.40
2019-03-24T09:24:37.385Z,9.50
2019-03-24T09:27:10.900Z,9.50
2019-03-24T09:29:44.532Z,9.50
2019-03-24T09:32:18.117Z,9.40
2019-03-24T09:34:51.623Z,9.40
2019-03-24T09:37:25.274Z,9.60
2019-03-24T09:39:58.778Z,9.70
2019-03-24T09:42:32.489Z,9.60
2019-03-24T09:45:06.844Z,9.60
2019-03-24T09:47:41.694Z,9.90
2019-03-24T09:50:15.184Z,10.00
2019-03-24T09:52:48.976Z,9.90
2019-03-24T09:55:22.593Z,9.90
2019-03-24T09:57:57.605Z,10.10
2019-03-24T10:00:31.013Z,10.10
2019-03-24T10:03:04.449Z,10.20
2019-03-24T10:05:38.429Z,10.30
2019-03-24T10:08:11.999Z,10.60
2019-03-24T10:10:45.624Z,10.80
2019-03-24T10:13:19.178Z,10.50
2019-03-24T10:15:53.800Z,10.50
2019-03-24T10:18:27.279Z,10.20
2019-03-24T10:21:01.028Z,10.20
2019-03-24T10:23:34.609Z,10.40
2019-03-24T10:26:08.224Z,10.50
2019-03-24T10:28:42.749Z,10.40
2019-03-24T10:31:16.811Z,10.50
2019-03-24T10:33:50.414Z,10.30
2019-03-24T10:36:23.970Z,10.40
2019-03-24T10:38:57.744Z,10.70
2019-03-24T10:41:31.246Z,11.10
2019-03-24T10:44:05.016Z,11.20
2019-03-24T10:46:38.846Z,11.40
2019-03-24T10:49:12.459Z,11.40
2019-03-24T10:51:46.876Z,11.60
2019-03-24T10:54:20.654Z,11.10
2019-03-24T10:56:54.408Z,11.20
2019-03-24T10:59:27.959Z,11.60
2019-03-24T11:02:01.501Z,11.90
2019-03-24T11:04:34.921Z,12.30
2019-03-24T11:07:08.856Z,12.50
2019-03-24T11:09:42.354Z,12.50
2019-03-24T11:12:15.957Z,12.40
2019-03-24T11:14:49.716Z,12.60
2019-03-24T11:17:23.442Z,12.90
2019-03-24T11:19:57.187Z,13.30
2019-03-24T11:22:30.533Z,13.00
2019-03-24T11:25:04.926Z,13.50
2019-03-24T11:27:38.604Z,14.50
2019-03-24T11:30:12.974Z,14.80
2019-03-24T11:32:46.463Z,14.80
2019-03-24T11:35:19.872Z,14.70
2019-03-24T11:37:53.413Z,14.10
2019-03-24T11:40:27.077Z,14.20
2019-03-24T11:43:00.535Z,13.50
2019-03-24T11:45:34.480Z,13.00
2019-03-24T11:48:07.986Z,13.10
2019-03-24T11:50:41.910Z,12.70
2019-03-24T11:53:16.811Z,12.90
2019-03-24T11:55:50.319Z,12.80
2019-03-24T11:58:23.739Z,13.20
2019-03-24T12:00:57.339Z,13.60
2019-03-24T12:03:30.886Z,13.00
2019-03-24T12:06:14.088Z,13.40
2019-03-24T12:08:40.347Z,14.60
2019-03-24T12:11:13.837Z,15.60
2019-03-24T12:13:47.251Z,15.20
2019-03-24T12:16:20.914Z,15.30
2019-03-24T12:18:54.349Z,15.80
2019-03-24T12:21:28.381Z,16.00
2019-03-24T12:24:01.971Z,15.70
2019-03-24T12:26:35.558Z,15.30
2019-03-24T12:29:09.951Z,15.50
2019-03-24T12:31:43.646Z,16.00
2019-03-24T12:34:17.218Z,16.60
2019-03-24T12:36:50.817Z,16.70
2019-03-24T12:39:24.402Z,16.40
2019-03-24T12:41:57.927Z,15.80
2019-03-24T12:44:31.316Z,16.10
2019-03-24T12:47:05.129Z,16.90
2019-03-24T12:49:39.090Z,16.10
2019-03-24T12:52:13.178Z,15.70
2019-03-24T12:54:47.075Z,15.60
2019-03-24T12:57:20.772Z,15.30
2019-03-24T12:59:54.346Z,15.40
2019-03-24T13:02:28.948Z,15.70
2019-03-24T13:05:02.567Z,16.30
2019-03-24T13:07:36.271Z,15.50
2019-03-24T13:10:09.778Z,15.30
2019-03-24T13:12:43.338Z,15.00
2019-03-24T13:15:16.977Z,15.40
2019-03-24T13:17:50.547Z,15.70
2019-03-24T13:20:37.864Z,15.30
2019-03-24T13:22:59.742Z,15.90
2019-03-24T13:25:33.302Z,16.00
2019-03-24T13:28:06.929Z,15.90
2019-03-24T13:30:40.818Z,15.60
2019-03-24T13:33:15.286Z,14.70
2019-03-24T13:35:54.161Z,14.80
2019-03-24T13:38:27.788Z,15.40
2019-03-24T13:41:01.322Z,15.20
2019-03-24T13:43:35.092Z,15.10
2019-03-24T13:46:08.722Z,15.20
2019-03-24T13:48:42.581Z,14.90
2019-03-24T13:51:16.377Z,14.10
2019-03-24T13:53:49.921Z,13.80
2019-03-24T13:56:23.623Z,13.70
2019-03-24T13:58:57.146Z,14.50
2019-03-24T14:01:30.972Z,14.80
2019-03-24T14:04:04.997Z,15.50
2019-03-24T14:06:38.559Z,15.60
2019-03-24T14:09:12.973Z,14.90
2019-03-24T14:11:46.546Z,14.20
2019-03-24T14:14:20.284Z,13.90
2019-03-24T14:16:53.832Z,14.20
2019-03-24T14:19:27.524Z,13.80
2019-03-24T14:22:01.093Z,13.70
2019-03-24T14:24:34.676Z,13.50
2019-03-24T14:27:08.295Z,14.00
2019-03-24T14:29:41.791Z,14.10
2019-03-24T14:32:15.393Z,14.50
2019-03-24T14:34:49.108Z,14.00
2019-03-24T14:37:22.702Z,13.70
2019-03-24T14:39:56.213Z,13.70
2019-03-24T14:42:29.994Z,14.20
2019-03-24T14:45:04.184Z,14.40
2019-03-24T14:47:37.972Z,14.30
2019-03-24T14:50:11.564Z,15.00
2019-03-24T14:52:45.195Z,15.70
2019-03-24T14:55:18.908Z,15.30
2019-03-24T14:57:52.372Z,14.20
2019-03-24T15:00:45.302Z,14.20
2019-03-24T15:03:19.884Z,14.80
2019-03-24T15:05:53.549Z,15.50
2019-03-24T15:08:27.334Z,16.10
2019-03-24T15:11:01.343Z,15.70
2019-03-24T15:13:34.762Z,15.70
2019-03-24T15:16:08.448Z,16.90
2019-03-24T15:18:42.029Z,17.20
2019-03-24T15:21:15.463Z,16.50
2019-03-24T15:23:49.048Z,17.10
2019-03-24T15:26:22.603Z,17.70
2019-03-24T15:28:56.267Z,17.00
2019-03-24T15:31:30.207Z,15.80
2019-03-24T15:34:04.011Z,16.60
2019-03-24T15:36:37.722Z,17.00
2019-03-24T15:39:11.519Z,16.60
2019-03-24T15:41:45.090Z,16.10
2019-03-24T15:44:18.728Z,15.80
2019-03-24T15:46:52.543Z,15.50
2019-03-24T15:49:26.092Z,16.70
2019-03-24T15:51:59.660Z,16.60
2019-03-24T15:54:33.353Z,15.60
2019-03-24T15:57:06.939Z,15.60
2019-03-24T15:59:41.446Z,16.00
2019-03-24T16:02:15.179Z,15.70
2019-03-24T16:04:48.660Z,15.30
2019-03-24T16:07:22.385Z,14.70
2019-03-24T16:09:55.867Z,15.20
2019-03-24T16:12:29.768Z,15.60
2019-03-24T16:15:03.746Z,15.90
2019-03-24T16:17:37.198Z,15.00
2019-03-24T16:20:10.879Z,14.90
2019-03-24T16:22:44.344Z,14.40
2019-03-24T16:25:18.226Z,14.20
2019-03-24T16:27:51.669Z,14.60
2019-03-24T16:30:25.264Z,14.50
2019-03-24T16:32:58.851Z,14.70
2019-03-24T16:35:32.725Z,14.50
2019-03-24T16:38:06.094Z,14.10
2019-03-24T16:40:41.439Z,13.50
2019-03-24T16:43:14.995Z,12.90
2019-03-24T16:45:48.541Z,12.40
2019-03-24T16:48:22.023Z,11.90
2019-03-24T16:50:55.597Z,11.70
2019-03-24T16:53:29.359Z,11.60
2019-03-24T16:56:02.861Z,11.30
2019-03-24T16:58:36.730Z,11.10
2019-03-24T17:01:11.788Z,11.10
2019-03-24T17:03:45.382Z,11.00
2019-03-24T17:06:19.070Z,10.90
2019-03-24T17:08:52.600Z,10.90
2019-03-24T17:11:26.344Z,11.00
2019-03-24T17:14:00.406Z,11.10
2019-03-24T17:16:34.115Z,11.10
2019-03-24T17:19:07.794Z,10.90
2019-03-24T17:21:49.590Z,10.90
2019-03-24T17:24:16.855Z,10.70
2019-03-24T17:26:50.470Z,10.60
2019-03-24T17:29:23.905Z,10.40
2019-03-24T17:31:57.609Z,10.20
2019-03-24T17:34:31.239Z,10.10
2019-03-24T17:37:04.987Z,10.00
2019-03-24T17:39:38.689Z,9.90
2019-03-24T17:42:12.291Z,9.80
2019-03-24T17:44:45.743Z,9.80
2019-03-24T17:47:19.367Z,9.70
2019-03-24T17:49:52.851Z,9.60
2019-03-24T17:52:26.565Z,9.60
2019-03-24T17:55:00.010Z,9.50
2019-03-24T17:57:33.738Z,9.50
2019-03-24T18:00:09.390Z,9.40
2019-03-24T18:02:43.139Z,9.30
2019-03-24T18:05:16.625Z,9.30
2019-03-24T18:07:50.269Z,9.20
2019-03-24T18:10:23.990Z,9.10
2019-03-24T18:12:58.096Z,9.00
2019-03-24T18:15:31.715Z,8.90
2019-03-24T18:18:05.349Z,8.90
2019-03-24T18:20:39.220Z,8.80
2019-03-24T18:23:12.822Z,8.70
2019-03-24T18:25:46.302Z,8.70
2019-03-24T18:28:20.008Z,8.60
2019-03-24T18:30:53.560Z,8.60
2019-03-24T18:33:27.077Z,8.50
2019-03-24T18:36:00.632Z,8.40
2019-03-24T18:38:34.111Z,8.40
2019-03-24T18:41:07.728Z,8.30
2019-03-24T18:43:41.267Z,8.20
2019-03-24T18:46:14.822Z,8.10
2019-03-24T18:48:48.356Z,8.00
2019-03-24T18:51:21.825Z,7.90
2019-03-24T18:53:55.502Z,7.70
2019-03-24T18:56:29.257Z,7.60
2019-03-24T18:59:02.867Z,7.60
2019-03-24T19:01:36.482Z,7.60
2019-03-24T19:04:10.021Z,7.50
2019-03-24T19:06:43.689Z,7.40
2019-03-24T19:09:18.250Z,7.40
2019-03-24T19:11:51.975Z,7.30
2019-03-24T19:14:25.563Z,7.20
2019-03-24T19:16:59.313Z,7.10
2019-03-24T19:19:33.036Z,7.00
2019-03-24T19:22:06.469Z,7.00
2019-03-24T19:24:40.022Z,6.90
2019-03-24T19:27:13.756Z,6.70
2019-03-24T19:29:47.401Z,6.70
2019-03-24T19:32:21.518Z,6.70
2019-03-24T19:34:55.071Z,6.50
2019-03-24T19:37:29.425Z,6.40
2019-03-24T19:40:03.543Z,6.30
2019-03-24T19:42:37.390Z,6.30
2019-03-24T19:45:11.328Z,6.30
2019-03-24T19:47:45.798Z,6.20
2019-03-24T19:50:19.496Z,6.30
2019-03-24T19:52:54.206Z,6.20
2019-03-24T19:55:27.703Z,6.20
2019-03-24T19:58:01.228Z,6.20
2019-03-24T20:00:34.769Z,6.20
2019-03-24T20:03:08.322Z,6.30
2019-03-24T20:05:41.962Z,6.40
2019-03-24T20:08:15.537Z,6.40
2019-03-24T20:10:49.188Z,6.40
2019-03-24T20:13:22.731Z,6.40
2019-03-24T20:15:56.396Z,6.40
2019-03-24T20:18:29.905Z,6.50
2019-03-24T20:21:03.345Z,6.40
2019-03-24T20:23:36.852Z,6.30
2019-03-24T20:26:10.397Z,6.30
2019-03-24T20:28:43.994Z,6.20
2019-03-24T20:31:17.563Z,6.20
2019-03-24T20:33:51.221Z,6.10
2019-03-24T20:36:24.783Z,6.00
2019-03-24T20:38:58.443Z,6.00
2019-03-24T20:41:31.833Z,6.00
2019-03-24T20:44:05.327Z,5.90
2019-03-24T20:46:38.819Z,5.90
2019-03-24T20:49:12.454Z,5.80
2019-03-24T20:51:49.119Z,5.70
2019-03-24T20:54:23.240Z,5.60
2019-03-24T20:56:56.754Z,5.60
2019-03-24T20:59:30.206Z,5.60
2019-03-24T21:02:03.720Z,5.50
2019-03-24T21:04:37.304Z,5.40
2019-03-24T21:07:10.758Z,5.40
2019-03-24T21:09:46.517Z,5.40
2019-03-24T21:12:20.009Z,5.30
2019-03-24T21:14:53.508Z,5.20
2019-03-24T21:17:27.087Z,5.20
2019-03-24T21:20:00.537Z,5.10
2019-03-24T21:22:34.277Z,5.10
2019-03-24T21:25:08.637Z,5.10
2019-03-24T21:27:42.104Z,5.00
2019-03-24T21:30:17.809Z,4.90
2019-03-24T21:32:51.649Z,4.90
2019-03-24T21:35:25.621Z,4.80
2019-03-24T21:37:59.165Z,4.90
2019-03-24T21:40:32.790Z,5.00
2019-03-24T21:43:07.133Z,5.00
2019-03-24T21:45:40.665Z,5.10
2019-03-24T21:48:14.553Z,5.20
2019-03-24T21:50:48.206Z,5.10
2019-03-24T21:53:21.730Z,5.20
2019-03-24T21:55:55.428Z,5.30
2019-03-24T21:58:28.973Z,5.40
2019-03-24T22:01:02.479Z,5.30
2019-03-24T22:03:37.018Z,5.20
2019-03-24T22:06:10.598Z,5.10
2019-03-24T22:08:44.294Z,5.00
2019-03-24T22:11:17.993Z,4.90
2019-03-24T22:13:51.595Z,4.90
2019-03-24T22:16:25.144Z,4.80
2019-03-24T22:18:58.725Z,4.70
2019-03-24T22:21:32.534Z,4.60
2019-03-24T22:24:06.079Z,4.50
2019-03-24T22:26:39.779Z,4.40
2019-03-24T22:29:13.235Z,4.30
2019-03-24T22:31:46.922Z,4.20
2019-03-24T22:34:20.338Z,4.10
2019-03-24T22:36:53.780Z,4.10
2019-03-24T22:39:27.289Z,4.10
2019-03-24T22:42:00.949Z,3.90
2019-03-24T22:44:34.518Z,3.80
2019-03-24T22:47:08.003Z,3.70
2019-03-24T22:49:41.588Z,3.70
2019-03-24T22:52:15.314Z,3.60
2019-03-24T22:54:48.917Z,3.60
2019-03-24T22:57:22.470Z,3.60
2019-03-24T22:59:56.103Z,3.60
2019-03-24T23:02:29.708Z,3.50
2019-03-24T23:05:03.276Z,3.50
2019-03-24T23:07:36.924Z,3.40
2019-03-24T23:10:10.556Z,3.40
2019-03-24T23:12:44.034Z,3.40
2019-03-24T23:15:17.819Z,3.40
2019-03-24T23:17:51.194Z,3.40
2019-03-24T23:20:25.193Z,3.40
2019-03-24T23:22:58.619Z,3.30
2019-03-24T23:25:33.164Z,3.30
2019-03-24T23:28:06.660Z,3.30
2019-03-24T23:30:40.229Z,3.30
2019-03-24T23:33:13.715Z,3.30
2019-03-24T23:35:47.291Z,3.20
2019-03-24T23:38:20.801Z,3.00
2019-03-24T23:40:54.316Z,2.90
2019-03-24T23:43:27.896Z,2.90
2019-03-24T23:46:01.385Z,2.90
2019-03-24T23:48:35.130Z,2.90
2019-03-24T23:51:08.554Z,2.90
2019-03-24T23:53:43.360Z,2.90
2019-03-24T23:56:16.880Z,2.90
2019-03-24T23:58:50.562Z,3.00
